DNAA/ABV METAR and TAF weather

Enter ICAO airport designator
Station Type Date Time Source
DNAA METAR 2020/10/20 17:00 UTC NOAA

DNAA 201700Z 04028KT 3000 TSRA SQ BKN008 FEW018CB 20/17 Q1012 BECMG 5000


Station Type Date Time Source
DNAA Decoded METAR 2020/10/20 17:00 UTC NOAA

Station name not available
Oct 20, 2020 - 01:00 PM EDT / 2020.10.20 1700 UTC
Wind: from the NE (040 degrees) at 32 MPH (28 KT):0
Visibility: 1 mile(s):0
Sky conditions: mostly cloudy
Weather: rain with thunder; squalls; Cumulonimbus clouds observed
Temperature: 68 F (20 C)
Dew Point: 62 F (17 C)
Relative Humidity: 82%
Pressure (altimeter): 29.88 in. Hg (1012 hPa)
ob: DNAA 201700Z 04028KT 3000 TSRA SQ BKN008 FEW018CB 20/17 Q1012 BECMG 5000
cycle: 17

Station Type Date Time Source
DNAA TAF 2020/10/20 18:27 UTC NOAA

TAF TAF DNAA 201700Z 2018/2124 29006KT 9999 FEW014 FEW020CB
TEMPO 2018/2020 05015G30KT 5000 -TSRA FEW010 FEW018CB
BECMG 2021/23 VRB02KT CAVOK

Example: see airport list